Terminal Aerodrome Forecast
Issued by NWS Wilmington, OH

Current Version | Previous Version | Text Only | Print | Product List | Glossary Off
Versions: 1 2 3 4 5 6 7 8 9 10 11 12 13 14 15 16 17 18 19 20 21 22

000
FTUS41 KILN 211000 AAB
TAFCMH
TAF AMD
KCMH 211045Z 2111/2206 31006KT 6SM BR SCT010 OVC015
      TEMPO 2112/2115 4SM -SHRA
     FM211500 31010G18KT P6SM VCSH OVC025
     FM212200 32008KT P6SM OVC018=

USA.gov is the U.S. government's official web portal to all federal, state and local government web resources and services.